Time;durP1;ratioP1;P1;durP2;ratioP2;P2;SDS_P1;SDS_P2;PMS_P1;PMS_P2;Temp;Humidity;BMP_temperature;BMP_pressure;BME280_temperature;BME280_humidity;BME280_pressure;Samples;Min_cycle;Max_cycle;Signal;HPM_P1;HPM_P2
2022/04/07 00:01:31;;;;;;;10.63;2.33;;;;;;;9.78;100.00;98981.34;4828745;29;20034;-73
2022/04/07 00:03:56;;;;;;;14.43;2.33;;;;;;;9.80;100.00;98978.25;4814256;29;20034;-73
2022/04/07 00:06:22;;;;;;;12.45;2.40;;;;;;;9.80;100.00;98969.91;4831908;29;20038;-73
2022/04/07 00:08:47;;;;;;;10.00;2.05;;;;;;;9.80;100.00;98961.59;4812448;29;20444;-73
2022/04/07 00:11:13;;;;;;;15.07;1.90;;;;;;;9.78;100.00;98955.59;4828810;29;20030;-73
2022/04/07 00:13:39;;;;;;;10.30;1.70;;;;;;;9.81;100.00;98943.84;4827393;29;20041;-73
2022/04/07 00:16:04;;;;;;;15.20;2.05;;;;;;;9.81;100.00;98939.09;4828555;29;20377;-73
2022/04/07 00:18:30;;;;;;;15.43;2.70;;;;;;;9.79;100.00;98935.84;4814860;29;20087;-72
2022/04/07 00:20:56;;;;;;;11.15;2.58;;;;;;;9.77;100.00;98921.47;4812432;29;20040;-72
2022/04/07 00:23:22;;;;;;;14.18;2.80;;;;;;;9.82;100.00;98907.47;4827738;29;20026;-73
2022/04/07 00:25:48;;;;;;;14.43;2.65;;;;;;;9.82;100.00;98904.69;4828684;29;20480;-72
2022/04/07 00:28:13;;;;;;;15.65;2.95;;;;;;;9.81;100.00;98903.06;4827656;29;20498;-72
2022/04/07 00:30:43;;;;;;;10.98;2.15;;;;;;;9.82;100.00;98903.88;4824651;29;20037;-72
2022/04/07 00:33:08;;;;;;;16.83;2.67;;;;;;;9.82;100.00;98906.66;4828975;29;20098;-73
2022/04/07 00:35:34;;;;;;;14.95;2.78;;;;;;;9.80;100.00;98906.16;4828641;29;20043;-73
2022/04/07 00:38:00;;;;;;;13.82;2.58;;;;;;;9.82;100.00;98914.97;4827453;29;20034;-73
2022/04/07 00:40:25;;;;;;;12.35;2.33;;;;;;;9.84;100.00;98912.69;4812003;29;20042;-73
2022/04/07 00:42:51;;;;;;;17.77;3.28;;;;;;;9.84;100.00;98901.59;4828405;29;20027;-72
2022/04/07 00:45:18;;;;;;;20.77;2.60;;;;;;;9.80;100.00;98887.56;4827158;29;20031;-73
2022/04/07 00:47:44;;;;;;;13.88;3.10;;;;;;;9.82;100.00;98890.00;4828125;29;20034;-73
2022/04/07 00:50:11;;;;;;;12.60;2.22;;;;;;;9.82;100.00;98885.28;4827370;29;20042;-73
2022/04/07 00:52:40;;;;;;;10.75;2.58;;;;;;;9.81;100.00;98885.63;4827099;29;20042;-73
2022/04/07 00:55:06;;;;;;;14.75;2.50;;;;;;;9.82;100.00;98887.25;4814855;29;20465;-73
2022/04/07 00:57:31;;;;;;;12.07;2.55;;;;;;;9.80;100.00;98886.75;4831167;29;20030;-73
2022/04/07 00:59:57;;;;;;;14.90;2.63;;;;;;;9.80;100.00;98872.88;4826998;29;20046;-73
2022/04/07 01:02:23;;;;;;;12.45;3.22;;;;;;;9.80;100.00;98876.47;4811297;29;20031;-73
2022/04/07 01:04:48;;;;;;;7.35;2.03;;;;;;;9.80;100.00;98870.09;4828196;29;20038;-73
2022/04/07 01:07:14;;;;;;;10.55;2.55;;;;;;;9.82;100.00;98865.06;4828007;29;20031;-73
2022/04/07 01:09:39;;;;;;;10.52;2.53;;;;;;;9.82;100.00;98865.06;4827903;29;20038;-73
2022/04/07 01:12:05;;;;;;;11.95;2.30;;;;;;;9.80;100.00;98861.78;4827610;29;20030;-73
2022/04/07 01:14:31;;;;;;;9.45;2.22;;;;;;;9.81;100.00;98863.44;4814613;29;20113;-73
2022/04/07 01:16:56;;;;;;;11.80;2.22;;;;;;;9.81;100.00;98874.53;4809569;29;20072;-73
2022/04/07 01:19:22;;;;;;;5.97;2.08;;;;;;;9.81;100.00;98877.31;4826298;29;20045;-73
2022/04/07 01:21:47;;;;;;;9.82;2.40;;;;;;;9.81;100.00;98885.63;4830568;29;20041;-73
2022/04/07 01:24:13;;;;;;;8.18;2.33;;;;;;;9.82;100.00;98884.47;4828568;29;20042;-73
2022/04/07 01:26:40;;;;;;;7.15;1.67;;;;;;;9.81;100.00;98896.72;4827668;29;20030;-73
2022/04/07 01:29:10;;;;;;;9.57;2.08;;;;;;;9.82;100.00;98882.50;4827718;29;20034;-73
2022/04/07 01:31:36;;;;;;;6.07;1.63;;;;;;;9.82;100.00;98865.06;4814500;29;20030;-73
2022/04/07 01:34:02;;;;;;;6.53;2.10;;;;;;;9.80;100.00;98847.94;4827013;29;20038;-73
2022/04/07 01:36:31;;;;;;;7.45;1.92;;;;;;;9.78;100.00;98851.03;4810956;29;20030;-73
2022/04/07 01:38:57;;;;;;;4.78;1.20;;;;;;;9.84;100.00;98846.13;4826495;29;20061;-73
2022/04/07 01:41:22;;;;;;;5.90;1.60;;;;;;;9.83;100.00;98836.19;4816744;29;20082;-73
2022/04/07 01:43:49;;;;;;;3.55;1.00;;;;;;;9.81;100.00;98838.50;4814546;29;20022;-72
2022/04/07 01:46:15;;;;;;;2.08;0.80;;;;;;;9.82;100.00;98812.38;4829897;29;20044;-73
2022/04/07 01:48:41;;;;;;;3.05;0.90;;;;;;;9.80;100.00;98815.47;4829407;29;20039;-73
2022/04/07 01:51:07;;;;;;;3.17;0.95;;;;;;;9.81;100.00;98813.53;4826186;29;20045;-73
2022/04/07 01:53:32;;;;;;;3.38;0.82;;;;;;;9.80;100.00;98801.59;4826321;29;20027;-73
2022/04/07 01:55:58;;;;;;;6.22;0.88;;;;;;;9.80;100.00;98793.28;4792744;29;20034;-73
2022/04/07 01:58:24;;;;;;;3.78;0.70;;;;;;;9.81;100.00;98788.59;4820178;29;20030;-73
2022/04/07 02:00:49;;;;;;;3.63;0.80;;;;;;;9.80;100.00;98778.63;4827300;29;20042;-72
2022/04/07 02:03:15;;;;;;;4.80;0.90;;;;;;;9.80;100.00;98775.84;4825822;29;20030;-73
2022/04/07 02:05:40;;;;;;;2.10;0.57;;;;;;;9.82;100.00;98762.47;4827395;29;20373;-73
2022/04/07 02:08:06;;;;;;;3.38;0.57;;;;;;;9.79;100.00;98763.13;4810726;29;20038;-73
2022/04/07 02:10:32;;;;;;;1.40;0.50;;;;;;;9.77;100.00;98749.59;4827546;29;20069;-73
2022/04/07 02:12:58;;;;;;;1.85;0.50;;;;;;;9.77;100.00;98752.38;4830598;29;20433;-72
2022/04/07 02:15:24;;;;;;;4.13;0.68;;;;;;;9.79;100.00;98729.88;4808987;29;20045;-73
2022/04/07 02:17:50;;;;;;;2.28;0.50;;;;;;;9.76;100.00;98725.00;4816029;29;20121;-73
2022/04/07 02:20:15;;;;;;;2.35;0.50;;;;;;;9.76;100.00;98725.00;4829370;29;20026;-73
2022/04/07 02:22:40;;;;;;;1.35;0.43;;;;;;;9.76;100.00;98733.31;4826065;29;20031;-73
2022/04/07 02:25:08;;;;;;;3.03;0.60;;;;;;;9.78;100.00;98722.72;4825832;29;20042;-73
2022/04/07 02:27:35;;;;;;;5.47;0.63;;;;;;;9.80;100.00;98720.41;4811039;29;20042;-73
2022/04/07 02:30:01;;;;;;;3.90;0.60;;;;;;;9.79;100.00;98713.22;4826106;29;20066;-73
2022/04/07 02:32:28;;;;;;;2.22;0.60;;;;;;;9.78;100.00;98712.44;4829644;29;20041;-73
2022/04/07 02:34:53;;;;;;;4.53;1.10;;;;;;;9.80;100.00;98703.75;4827219;29;20043;-73
2022/04/07 02:37:19;;;;;;;9.98;1.80;;;;;;;9.81;100.00;98713.72;4829950;29;20039;-73
2022/04/07 02:39:44;;;;;;;8.60;1.63;;;;;;;9.80;100.00;98710.13;4814797;29;20034;-73
2022/04/07 02:42:10;;;;;;;7.72;1.65;;;;;;;9.81;100.00;98708.19;4826887;29;20038;-73
2022/04/07 02:44:35;;;;;;;10.18;1.65;;;;;;;9.82;100.00;98707.03;4826821;29;20039;-73
2022/04/07 02:47:01;;;;;;;8.95;1.70;;;;;;;9.83;100.00;98711.41;4826552;29;20433;-73
2022/04/07 02:49:26;;;;;;;9.32;1.83;;;;;;;9.84;100.00;98700.00;4825666;29;20042;-73
2022/04/07 02:51:52;;;;;;;9.32;1.73;;;;;;;9.86;100.00;98707.97;4825688;29;20038;-73
2022/04/07 02:54:17;;;;;;;10.00;2.25;;;;;;;9.85;100.00;98711.91;4825595;29;20553;-73
2022/04/07 02:56:43;;;;;;;10.95;1.88;;;;;;;9.84;100.00;98696.41;4825527;29;20162;-73
2022/04/07 02:59:08;;;;;;;10.80;1.90;;;;;;;9.81;100.00;98681.25;4826833;29;20511;-73
2022/04/07 03:01:34;;;;;;;11.90;2.78;;;;;;;9.83;100.00;98680.91;4828893;29;20038;-73
2022/04/07 03:03:59;;;;;;;12.95;2.85;;;;;;;9.82;100.00;98682.06;4828439;29;20043;-73
2022/04/07 03:06:25;;;;;;;15.50;2.53;;;;;;;9.82;100.00;98679.28;4826707;29;20030;-73
2022/04/07 03:08:51;;;;;;;16.60;2.70;;;;;;;9.84;100.00;98672.28;4810111;29;20037;-73
2022/04/07 03:11:16;;;;;;;16.50;3.50;;;;;;;9.83;100.00;98683.69;4825337;29;20540;-73
2022/04/07 03:13:42;;;;;;;20.27;3.40;;;;;;;9.82;100.00;98662.66;4826106;29;20058;-73
2022/04/07 03:16:08;;;;;;;17.83;2.85;;;;;;;9.81;100.00;98648.00;4826389;29;20057;-73
2022/04/07 03:18:33;;;;;;;10.90;2.55;;;;;;;9.78;100.00;98647.84;4826354;29;20378;-73
2022/04/07 03:20:59;;;;;;;17.92;3.25;;;;;;;9.79;100.00;98641.97;4823531;29;20059;-74
2022/04/07 03:23:25;;;;;;;14.18;2.72;;;;;;;9.81;100.00;98647.19;4826554;29;20099;-73
2022/04/07 03:25:50;;;;;;;16.40;2.90;;;;;;;9.80;100.00;98638.03;4827367;29;20054;-73
2022/04/07 03:28:16;;;;;;;15.98;2.92;;;;;;;9.82;100.00;98649.59;4833243;29;20516;-73
2022/04/07 03:30:41;;;;;;;15.75;3.15;;;;;;;9.78;100.00;98632.03;4818453;29;20518;-73
2022/04/07 03:33:07;;;;;;;16.58;2.50;;;;;;;9.80;100.00;98640.00;4811176;29;20453;-73
2022/04/07 03:35:33;;;;;;;16.52;3.22;;;;;;;9.78;100.00;98623.72;4828880;29;20038;-73
2022/04/07 03:37:58;;;;;;;21.00;3.15;;;;;;;9.76;100.00;98619.66;4829437;29;20086;-73
2022/04/07 03:40:25;;;;;;;18.50;3.20;;;;;;;9.76;100.00;98619.66;4820068;29;20576;-73
2022/04/07 03:42:51;;;;;;;17.40;2.92;;;;;;;9.77;100.00;98618.50;4829541;29;20499;-73
2022/04/07 03:45:17;;;;;;;16.85;3.42;;;;;;;9.76;100.00;98614.09;4813056;29;20042;-73
2022/04/07 03:47:42;;;;;;;13.07;2.40;;;;;;;9.74;100.00;98595.03;4813255;29;20039;-73
2022/04/07 03:50:08;;;;;;;17.13;3.13;;;;;;;9.76;100.00;98583.59;4819123;29;20038;-73
2022/04/07 03:52:33;;;;;;;21.38;2.83;;;;;;;9.75;100.00;98573.66;4815233;29;20070;-73
2022/04/07 03:54:59;;;;;;;14.65;3.05;;;;;;;9.76;100.00;98564.22;4813484;29;20038;-73
2022/04/07 03:57:24;;;;;;;11.88;2.50;;;;;;;9.74;100.00;98556.22;4811013;29;20035;-73
2022/04/07 03:59:50;;;;;;;15.55;2.70;;;;;;;9.77;100.00;98563.84;4811207;29;20546;-73
2022/04/07 04:02:16;;;;;;;15.68;2.97;;;;;;;9.74;100.00;98553.44;4819814;29;20034;-73
2022/04/07 04:04:41;;;;;;;16.10;2.75;;;;;;;9.77;100.00;98552.75;4827962;29;20063;-73
2022/04/07 04:07:07;;;;;;;19.02;3.22;;;;;;;9.77;100.00;98557.50;4827850;29;20449;-73
2022/04/07 04:09:32;;;;;;;16.20;2.63;;;;;;;9.76;100.00;98548.38;4828847;29;20038;-73
2022/04/07 04:11:58;;;;;;;15.48;2.67;;;;;;;9.77;100.00;98536.13;4828740;29;20042;-73
2022/04/07 04:14:23;;;;;;;13.90;2.35;;;;;;;9.79;100.00;98528.28;4828881;29;20042;-73
2022/04/07 04:16:49;;;;;;;14.32;2.92;;;;;;;9.79;100.00;98513.63;4828738;29;20059;-73
2022/04/07 04:19:15;;;;;;;13.10;2.63;;;;;;;9.79;100.00;98527.50;4837731;29;20037;-73
2022/04/07 04:21:40;;;;;;;10.73;2.90;;;;;;;9.77;100.00;98519.50;4828901;29;20374;-73
2022/04/07 04:24:06;;;;;;;11.52;2.50;;;;;;;9.81;100.00;98522.44;4828848;29;20027;-73
2022/04/07 04:26:31;;;;;;;14.98;2.45;;;;;;;9.81;100.00;98530.75;4828950;29;20038;-73
2022/04/07 04:28:57;;;;;;;7.88;1.90;;;;;;;9.79;100.00;98514.44;4828682;29;20042;-73
2022/04/07 04:31:24;;;;;;;8.70;2.33;;;;;;;9.83;100.00;98520.09;4812987;29;20051;-73
2022/04/07 04:33:53;;;;;;;8.10;1.67;;;;;;;9.85;100.00;98517.81;4826473;29;20038;-73
2022/04/07 04:36:19;;;;;;;9.10;2.20;;;;;;;9.85;100.00;98524.16;4824165;29;20069;-73
2022/04/07 04:38:44;;;;;;;10.30;2.47;;;;;;;9.83;100.00;98507.09;4828210;29;20042;-72
2022/04/07 04:41:10;;;;;;;10.70;2.20;;;;;;;9.85;100.00;98510.31;4827134;29;20046;-74
2022/04/07 04:43:35;;;;;;;11.07;2.50;;;;;;;9.87;100.00;98492.53;4812501;29;20027;-74
2022/04/07 04:46:02;;;;;;;7.78;1.90;;;;;;;9.88;100.00;98488.59;4828571;29;20038;-74
2022/04/07 04:48:27;;;;;;;11.02;2.08;;;;;;;9.89;100.00;98501.31;4827239;29;20042;-74
2022/04/07 04:50:52;;;;;;;6.35;1.83;;;;;;;9.90;100.00;98489.91;4790087;29;20046;-74
2022/04/07 04:53:18;;;;;;;6.25;1.85;;;;;;;9.91;100.00;98494.28;4811944;29;20035;-74
2022/04/07 04:55:43;;;;;;;6.68;1.40;;;;;;;9.92;100.00;98484.81;4811982;29;20038;-76
2022/04/07 04:58:09;;;;;;;9.20;3.72;;;;;;;9.92;100.00;98486.75;4812047;29;20045;-74
2022/04/07 05:00:35;;;;;;;27.40;17.20;;;;;;;9.95;100.00;98488.88;4827008;29;20038;-77
2022/04/07 05:03:00;;;;;;;23.02;14.35;;;;;;;9.95;100.00;98477.78;4793592;29;20035;-75
2022/04/07 05:05:26;;;;;;;72.00;44.83;;;;;;;9.95;100.00;98464.75;4825407;29;20091;-72
2022/04/07 05:07:52;;;;;;;39.42;23.67;;;;;;;9.95;100.00;98478.59;4816154;29;20042;-73
2022/04/07 05:10:18;;;;;;;30.63;17.45;;;;;;;9.99;100.00;98468.44;4812363;29;20077;-72
2022/04/07 05:12:44;;;;;;;22.73;13.05;;;;;;;9.99;100.00;98456.53;4824786;29;20038;-71
2022/04/07 05:15:09;;;;;;;20.55;11.57;;;;;;;10.01;100.00;98471.69;4827826;29;20381;-71
2022/04/07 05:17:35;;;;;;;19.67;11.38;;;;;;;10.02;100.00;98464.19;4813666;29;20125;-71
2022/04/07 05:20:02;;;;;;;15.93;9.13;;;;;;;10.01;100.00;98468.13;4812104;29;20035;-70
2022/04/07 05:22:27;;;;;;;11.77;7.18;;;;;;;10.04;100.00;98467.44;4818717;29;20061;-71
2022/04/07 05:24:53;;;;;;;11.98;4.95;;;;;;;10.07;100.00;98453.69;4828055;29;20489;-71
2022/04/07 05:27:18;;;;;;;11.07;4.32;;;;;;;10.06;100.00;98459.59;4827776;29;20038;-71
2022/04/07 05:29:44;;;;;;;9.73;4.07;;;;;;;10.05;100.00;98458.75;4823387;29;20039;-71
2022/04/07 05:32:09;;;;;;;8.10;3.55;;;;;;;10.05;100.00;98452.41;4807878;29;20038;-71
2022/04/07 05:34:35;;;;;;;7.93;2.90;;;;;;;10.07;100.00;98453.69;4819446;29;20030;-71
2022/04/07 05:37:00;;;;;;;7.65;2.30;;;;;;;10.14;100.00;98457.84;4830439;29;20091;-71
2022/04/07 05:39:26;;;;;;;7.78;2.13;;;;;;;10.11;100.00;98455.78;4827578;29;20034;-75
2022/04/07 05:41:51;;;;;;;7.28;2.80;;;;;;;10.10;100.00;98452.19;4826442;29;20129;-75
2022/04/07 05:44:17;;;;;;;4.47;2.30;;;;;;;10.12;100.00;98449.91;4811269;29;20039;-76
2022/04/07 05:46:42;;;;;;;4.88;1.88;;;;;;;10.13;100.00;98461.81;4811048;29;20042;-73
2022/04/07 05:49:31;;;;;;;4.57;2.05;;;;;;;10.15;100.00;98453.94;4825489;29;20096;-78
2022/04/07 05:52:00;;;;;;;3.75;1.55;;;;;;;10.17;100.00;98452.47;4808651;29;20057;-73
2022/04/07 05:54:27;;;;;;;4.72;1.60;;;;;;;10.17;100.00;98446.09;4827627;29;20030;-75
2022/04/07 05:56:52;;;;;;;4.03;1.35;;;;;;;10.17;100.00;98446.09;4827482;29;20076;-76
2022/04/07 05:59:18;;;;;;;6.40;1.52;;;;;;;10.17;100.00;98446.09;4812264;29;20041;-75
2022/04/07 06:01:43;;;;;;;3.65;1.17;;;;;;;10.19;100.00;98439.03;4829837;29;20045;-73
2022/04/07 06:04:15;;;;;;;4.00;1.10;;;;;;;10.20;100.00;98440.69;4826819;29;20067;-79
2022/04/07 06:06:40;;;;;;;2.20;0.80;;;;;;;10.22;100.00;98454.19;4827276;29;20091;-75
2022/04/07 06:09:06;;;;;;;3.55;1.08;;;;;;;10.24;100.00;98440.81;4823763;29;20038;-73
2022/04/07 06:11:32;;;;;;;2.88;0.90;;;;;;;10.27;100.00;98446.50;4825004;29;20038;-73
2022/04/07 06:14:29;;;;;;;2.42;0.73;;;;;;;10.28;100.00;98447.34;4810615;29;20408;-78
2022/04/07 06:16:55;;;;;;;4.28;0.93;;;;;;;10.30;100.00;98456.09;4797143;29;20095;-78
2022/04/07 06:19:25;;;;;;;2.83;1.00;;;;;;;10.33;100.00;98465.72;4807830;29;20121;-78
2022/04/07 06:22:11;;;;;;;2.88;1.25;;;;;;;10.36;100.00;98465.03;4792784;29;20053;-78
2022/04/07 06:24:37;;;;;;;1.83;0.88;;;;;;;10.38;100.00;98474.63;4823133;29;20487;-79
2022/04/07 06:27:03;;;;;;;2.38;0.70;;;;;;;10.40;100.00;98475.09;4814961;29;20038;-78
2022/04/07 06:29:31;;;;;;;5.45;0.80;;;;;;;10.41;100.00;98490.59;4825305;29;20027;-79
2022/04/07 06:32:18;;;;;;;5.00;0.98;;;;;;;10.44;100.00;98480.78;4817445;29;20031;-79
2022/04/07 06:35:27;;;;;;;1.60;0.50;;;;;;;10.48;100.00;98496.41;4812966;29;20114;-79
2022/04/07 06:38:10;;;;;;;2.88;0.80;;;;;;;10.48;100.00;98501.94;4814522;29;20123;-80
2022/04/07 06:40:39;;;;;;;2.85;0.90;;;;;;;10.51;100.00;98506.00;4809047;29;20055;-77
2022/04/07 06:43:12;;;;;;;2.83;0.80;;;;;;;10.54;100.00;98510.06;4825752;29;20130;-75
2022/04/07 06:45:37;;;;;;;6.78;1.23;;;;;;;10.58;100.00;98494.34;4810143;29;20038;-75
2022/04/07 06:48:03;;;;;;;4.28;0.80;;;;;;;10.61;100.00;98516.66;4826997;29;20035;-75
2022/04/07 06:50:28;;;;;;;3.53;0.70;;;;;;;10.63;100.00;98499.69;4813567;29;20121;-76
2022/04/07 06:53:01;;;;;;;3.75;1.00;;;;;;;10.66;100.00;98513.69;4828352;29;20030;-79
2022/04/07 06:55:28;;;;;;;2.85;0.82;;;;;;;10.69;100.00;98518.53;4826943;29;20615;-76
2022/04/07 06:58:01;;;;;;;7.22;1.33;;;;;;;10.71;100.00;98510.69;4825906;29;20445;-75
2022/04/07 07:00:27;;;;;;;4.75;1.02;;;;;;;10.76;100.00;98504.09;4825508;29;20071;-76
2022/04/07 07:02:55;;;;;;;4.25;0.93;;;;;;;10.82;100.00;98522.16;4828815;29;20058;-74
2022/04/07 07:05:21;;;;;;;4.30;1.13;;;;;;;10.85;100.00;98510.38;4829852;29;20041;-76
2022/04/07 07:07:46;;;;;;;6.45;1.13;;;;;;;10.89;100.00;98502.97;4830134;29;20397;-76
2022/04/07 07:10:12;;;;;;;6.25;1.20;;;;;;;10.93;100.00;98506.69;4828127;29;20046;-75
2022/04/07 07:12:43;;;;;;;4.57;1.38;;;;;;;10.96;100.00;98497.66;4828138;29;20374;-75
2022/04/07 07:15:09;;;;;;;4.00;1.00;;;;;;;11.01;100.00;98507.72;4829938;29;20034;-74
2022/04/07 07:17:37;;;;;;;6.63;1.00;;;;;;;11.07;100.00;98494.44;4833511;29;20030;-74
2022/04/07 07:20:04;;;;;;;4.82;1.10;;;;;;;11.11;100.00;98514.78;4827979;29;20041;-74
2022/04/07 07:22:30;;;;;;;5.45;1.10;;;;;;;11.13;100.00;98513.28;4824984;29;20511;-74
2022/04/07 07:24:56;;;;;;;6.07;1.02;;;;;;;11.18;100.00;98513.06;4827452;29;20101;-73
2022/04/07 07:27:21;;;;;;;5.00;1.42;;;;;;;11.20;100.00;98521.06;4828168;29;20041;-73
2022/04/07 07:29:47;;;;;;;7.32;1.40;;;;;;;11.24;100.00;98526.72;4824501;29;20043;-74
2022/04/07 07:32:12;;;;;;;9.20;1.38;;;;;;;11.23;100.00;98531.47;4825985;29;20038;-74
2022/04/07 07:34:38;;;;;;;7.97;1.83;;;;;;;11.26;100.00;98530.78;4829398;29;20095;-73
2022/04/07 07:37:03;;;;;;;6.68;1.65;;;;;;;11.27;100.00;98537.16;4829466;29;20034;-74
2022/04/07 07:39:29;;;;;;;8.73;1.27;;;;;;;11.29;100.00;98535.66;4829880;29;20042;-74
2022/04/07 07:41:55;;;;;;;8.82;1.83;;;;;;;11.28;100.00;98534.03;4833404;29;20119;-74
2022/04/07 07:44:20;;;;;;;9.40;1.48;;;;;;;11.28;100.00;98541.53;4828947;29;20030;-74
2022/04/07 07:46:46;;;;;;;9.13;1.85;;;;;;;11.28;100.00;98533.19;4829036;29;20046;-74
2022/04/07 07:49:11;;;;;;;6.13;1.50;;;;;;;11.30;100.00;98542.81;4829186;29;20034;-73
2022/04/07 07:51:37;;;;;;;10.70;1.63;;;;;;;11.30;100.00;98544.78;4828236;29;20039;-74
2022/04/07 07:54:04;;;;;;;7.60;1.40;;;;;;;11.30;100.00;98548.38;4829298;29;20035;-73
2022/04/07 07:56:29;;;;;;;7.35;1.50;;;;;;;11.31;100.00;98549.19;4829141;29;20141;-76
2022/04/07 07:58:55;;;;;;;8.40;2.00;;;;;;;11.32;100.00;98551.63;4809970;29;20038;-76
2022/04/07 08:01:20;;;;;;;8.95;1.63;;;;;;;11.32;100.00;98557.19;4820303;29;20034;-75
2022/04/07 08:03:46;;;;;;;8.63;1.77;;;;;;;11.34;100.00;98559.63;4827723;29;20383;-74
2022/04/07 08:06:11;;;;;;;11.98;2.53;;;;;;;11.36;100.00;98571.19;4833247;29;20388;-74
2022/04/07 08:08:37;;;;;;;10.77;1.90;;;;;;;11.37;100.00;98559.75;4830296;29;20031;-73
2022/04/07 08:11:02;;;;;;;11.73;1.90;;;;;;;11.39;100.00;98567.72;4828988;29;20102;-73
2022/04/07 08:13:28;;;;;;;7.68;2.05;;;;;;;11.41;100.00;98568.19;4826932;29;20491;-77
2022/04/07 08:15:53;;;;;;;10.68;1.80;;;;;;;11.44;100.00;98558.34;4794378;29;20088;-77
2022/04/07 08:18:19;;;;;;;7.70;1.77;;;;;;;11.47;100.00;98554.88;4796079;29;20039;-78
2022/04/07 08:20:44;;;;;;;8.57;1.90;;;;;;;11.53;100.00;98550.69;4827713;29;20042;-79
2022/04/07 08:23:10;;;;;;;11.93;2.13;;;;;;;11.58;100.00;98553.25;4809608;29;20042;-79
2022/04/07 08:25:35;;;;;;;7.63;2.55;;;;;;;11.68;100.00;98550.00;4827427;29;20037;-80
2022/04/07 08:28:02;;;;;;;7.75;1.73;;;;;;;11.73;100.00;98558.09;4812367;29;20057;-75
2022/04/07 08:30:27;;;;;;;11.88;1.92;;;;;;;11.80;100.00;98557.50;4827413;29;20415;-75
2022/04/07 08:32:53;;;;;;;12.27;2.30;;;;;;;11.90;100.00;98570.19;4810431;29;20045;-75
2022/04/07 08:35:19;;;;;;;12.98;2.60;;;;;;;11.98;100.00;98566.41;4812309;29;20450;-76
2022/04/07 08:37:44;;;;;;;10.68;2.42;;;;;;;12.07;100.00;98575.47;4827426;29;20050;-76
2022/04/07 08:40:10;;;;;;;10.13;2.00;;;;;;;12.17;100.00;98574.97;4828355;29;20035;-77
2022/04/07 08:42:36;;;;;;;13.63;2.50;;;;;;;12.24;100.00;98572.41;4827255;29;20038;-76
2022/04/07 08:45:01;;;;;;;13.05;2.20;;;;;;;12.40;100.00;98574.47;4797100;29;20144;-77
2022/04/07 08:47:27;;;;;;;13.25;2.47;;;;;;;12.48;100.00;98585.44;4827062;29;20325;-77
2022/04/07 08:49:52;;;;;;;12.48;2.85;;;;;;;12.63;100.00;98608.13;4809283;29;20038;-79
2022/04/07 08:52:18;;;;;;;21.95;7.53;;;;;;;12.75;100.00;98594.94;4810818;29;20083;-75
2022/04/07 08:54:44;;;;;;;16.73;4.72;;;;;;;12.87;100.00;98601.63;4812823;29;20039;-75
2022/04/07 08:57:10;;;;;;;12.93;3.67;;;;;;;13.02;100.00;98614.78;4831979;29;20030;-78
2022/04/07 08:59:36;;;;;;;12.73;3.15;;;;;;;13.14;100.00;98623.06;4807880;29;20036;-78
2022/04/07 09:02:02;;;;;;;11.70;3.22;;;;;;;13.25;100.00;98631.72;4826796;29;20034;-78
2022/04/07 09:04:40;;;;;;;14.40;3.40;;;;;;;13.35;100.00;98628.44;4811720;29;20041;-78
2022/04/07 09:07:11;;;;;;;12.73;3.00;;;;;;;13.44;100.00;98631.06;4797675;29;20030;-77
2022/04/07 09:09:37;;;;;;;14.50;3.33;;;;;;;13.52;100.00;98649.59;4811156;29;20063;-76
2022/04/07 09:12:04;;;;;;;12.15;3.50;;;;;;;13.58;100.00;98647.34;4828228;29;20429;-75
2022/04/07 09:14:33;;;;;;;10.07;3.28;;;;;;;13.66;100.00;98657.53;4811814;29;20105;-78
2022/04/07 09:16:59;;;;;;;11.40;2.90;;;;;;;13.72;100.00;98666.44;4811448;29;20094;-77
2022/04/07 09:19:25;;;;;;;10.38;3.15;;;;;;;13.73;100.00;98693.94;4811746;29;20445;-77
2022/04/07 09:22:10;;;;;;;13.60;2.58;;;;;;;13.73;100.00;98696.75;4825353;29;20088;-74
2022/04/07 09:24:40;;;;;;;3.88;0.70;;;;;;;13.68;100.00;98697.03;4825806;29;20117;-79
2022/04/07 09:27:07;;;;;;;3.90;0.90;;;;;;;13.65;100.00;98714.50;4827790;29;20373;-77
2022/04/07 09:29:41;;;;;;;3.58;1.33;;;;;;;13.55;100.00;98709.44;4826520;29;20030;-76
2022/04/07 09:32:19;;;;;;;3.03;1.70;;;;;;;13.44;100.00;98711.94;4810986;29;20563;-77
2022/04/07 09:34:55;;;;;;;2.47;1.00;;;;;;;13.35;100.00;98723.25;4826600;29;20495;-77
2022/04/07 09:37:21;;;;;;;2.63;1.00;;;;;;;13.21;100.00;98733.16;4826499;29;20083;-78
2022/04/07 09:39:48;;;;;;;2.40;1.30;;;;;;;13.12;100.00;98738.88;4811016;29;20106;-77
2022/04/07 09:42:25;;;;;;;2.28;1.20;;;;;;;13.00;100.00;98736.94;4826012;29;20096;-77
2022/04/07 09:44:53;;;;;;;4.30;2.30;;;;;;;12.90;100.00;98729.09;4812176;29;20030;-77
2022/04/07 09:47:20;;;;;;;3.08;1.30;;;;;;;12.80;100.00;98737.94;4829931;29;20077;-79
2022/04/07 09:49:46;;;;;;;2.70;1.30;;;;;;;12.69;100.00;98746.75;4826580;29;20042;-76
2022/04/07 09:52:12;;;;;;;1.90;1.10;;;;;;;12.63;100.00;98750.16;4811280;29;20033;-78
2022/04/07 09:54:43;;;;;;;4.03;1.25;;;;;;;12.56;100.00;98753.50;4811129;29;20046;-79
2022/04/07 09:57:12;;;;;;;2.30;0.80;;;;;;;12.48;100.00;98755.28;4808791;29;20031;-80
2022/04/07 09:59:40;;;;;;;2.38;1.20;;;;;;;12.43;100.00;98755.50;4811279;29;20035;-78
2022/04/07 10:02:06;;;;;;;3.47;1.20;;;;;;;12.38;100.00;98763.28;4825971;29;20503;-73
2022/04/07 10:04:34;;;;;;;2.08;0.80;;;;;;;12.35;100.00;98753.66;4812366;29;20092;-74
2022/04/07 10:07:01;;;;;;;2.92;1.40;;;;;;;12.32;100.00;98764.69;4811442;29;20110;-75
2022/04/07 10:09:27;;;;;;;1.73;0.95;;;;;;;12.27;100.00;98763.75;4821155;29;20397;-75
2022/04/07 10:11:53;;;;;;;4.63;1.40;;;;;;;12.26;100.00;98764.09;4828921;29;20038;-76
2022/04/07 10:14:21;;;;;;;3.25;1.27;;;;;;;12.27;100.00;98765.72;4811150;29;20099;-76
2022/04/07 10:16:47;;;;;;;2.38;1.10;;;;;;;12.27;100.00;98768.50;4810891;29;20034;-73
2022/04/07 10:19:13;;;;;;;2.42;1.00;;;;;;;12.28;100.00;98764.56;4827216;29;20098;-76
2022/04/07 10:21:52;;;;;;;12.85;5.68;;;;;;;12.28;100.00;98770.13;4825774;29;20113;-74
2022/04/07 10:24:31;;;;;;;5.28;2.08;;;;;;;12.28;100.00;98772.91;4827258;29;20441;-74
2022/04/07 10:26:59;;;;;;;1.88;1.20;;;;;;;12.32;100.00;98786.97;4825850;29;20046;-74
2022/04/07 10:29:25;;;;;;;3.33;1.77;;;;;;;12.33;100.00;98788.56;4810818;29;20041;-75
2022/04/07 10:32:13;;;;;;;3.42;1.48;;;;;;;12.36;100.00;98787.88;4825683;29;20026;-77
2022/04/07 10:34:55;;;;;;;1.90;1.20;;;;;;;12.38;100.00;98786.38;4805474;29;20078;-75
2022/04/07 10:37:30;;;;;;;3.07;1.17;;;;;;;12.41;100.00;98791.22;4825248;29;20042;-74
2022/04/07 10:39:56;;;;;;;1.85;0.88;;;;;;;12.44;100.00;98790.53;4831077;29;20086;-74
2022/04/07 10:42:59;;;;;;;1.77;0.98;;;;;;;12.46;100.00;98806.91;4829036;29;20046;-74
2022/04/07 10:45:33;;;;;;;1.90;1.40;;;;;;;12.46;100.00;98806.91;4822880;29;20038;-74
2022/04/07 10:48:20;;;;;;;3.28;1.67;;;;;;;12.48;100.00;98818.47;4829230;29;20038;-74
2022/04/07 10:51:07;;;;;;;7.68;3.47;;;;;;;12.45;100.00;98819.19;4818004;29;20070;-75
2022/04/07 10:53:37;;;;;;;6.80;3.80;;;;;;;12.44;100.00;98817.56;4830167;29;20030;-74
2022/04/07 10:56:10;;;;;;;7.45;3.72;;;;;;;12.45;100.00;98819.19;4830183;29;20118;-73
2022/04/07 10:58:40;;;;;;;6.18;3.22;;;;;;;12.45;100.00;98819.19;4827817;29;20110;-74
2022/04/07 11:01:06;;;;;;;6.82;3.42;;;;;;;12.45;100.00;98819.19;4831575;29;20515;-74
2022/04/07 11:03:32;;;;;;;7.82;2.50;;;;;;;12.47;100.00;98817.69;4833631;29;20031;-74
2022/04/07 11:06:03;;;;;;;3.63;2.20;;;;;;;12.51;100.00;98820.59;4828929;29;20369;-74
2022/04/07 11:08:30;;;;;;;2.72;1.67;;;;;;;12.54;100.00;98833.81;4824354;29;20070;-74
2022/04/07 11:10:56;;;;;;;3.45;1.60;;;;;;;12.58;100.00;98828.34;4814255;29;20038;-74
2022/04/07 11:13:43;;;;;;;4.00;1.75;;;;;;;12.63;100.00;98828.94;4811220;29;20121;-74
2022/04/07 11:16:36;;;;;;;4.28;1.55;;;;;;;12.71;100.00;98816.06;4828559;29;20045;-75
2022/04/07 11:19:08;;;;;;;5.45;1.83;;;;;;;12.81;100.00;98825.91;4819203;29;20037;-75
2022/04/07 11:21:49;;;;;;;5.30;1.70;;;;;;;12.92;100.00;98827.84;4829502;29;20122;-75
2022/04/07 11:24:22;;;;;;;3.10;1.50;;;;;;;13.04;100.00;98834.56;4803236;29;20477;-75
2022/04/07 11:26:47;;;;;;;4.55;1.35;;;;;;;13.17;100.00;98838.97;4829593;29;20034;-75